Condiciones actuales en los principales Aeropuertos de España-Datos Metar

 

LEAL - Alicante
Actualización: 18/02/2018 18:30
Mostly Cloudy
Mostly Cloudy
 Viento del ENE
Viento: ENE 19 km/h
Temperatura: 13°C
Rocío: 10°C
Humedad: 82%
Barómetro: 1020 hPa
Nubosidad: Mostly Cloudy
Visibilidad: 10 km
Cloud details: Partly Cloudy 366 m
Mostly Cloudy 762 m
2018/02/18 17:30 LEAL 181730Z 07010KT 9999 SCT012 BKN025 13/10 Q1020 NOSIG
LEAB - Albacete
Actualización: 18/02/2018 18:00
Few Clouds
Few Clouds
 Viento del NO
Viento: NO 7 km/h
Temperatura: 12°C
Rocío: 3°C
Humedad: 54%
Barómetro: 1019 hPa
Nubosidad: Few Clouds
Visibilidad: 10 km
Cloud details: Few Clouds 1219 m
2018/02/18 17:00 LEAB 181700Z 32004KT 9999 FEW040 12/03 Q1019 NOSIG
LEAM - Almería
Actualización: 18/02/2018 18:30
Partly Cloudy
Partly Cloudy
 Viento del ENE
Viento: ENE 24 km/h
Temperatura: 15°C
Rocío: 9°C
Humedad: 68%
Barómetro: 1019 hPa
Nubosidad: Partly Cloudy
Visibilidad: 10 km
Cloud details: Few Clouds 914 m
Partly Cloudy 1280 m
2018/02/18 17:30 LEAM 181730Z 07013KT 9999 FEW030 SCT042 15/09 Q1019
 
LEAS - Asturias/Aviles
Actualización: 18/02/2018 19:00
Mostly Cloudy
Mostly Cloudy
 Viento del O
Viento: O 13 km/h
Temperatura: 11°C
Rocío: 9°C
Humedad: 88%
Barómetro: 1026 hPa
Nubosidad: Mostly Cloudy
Visibilidad: 10 km
Cloud details: Mostly Cloudy 457 m
Mostly Cloudy 762 m
2018/02/18 18:00 LEAS 181800Z 28007KT 9999 BKN015 BKN025 11/09 Q1026 TEMPO 3000 RA BKN010
LEBZ - Badajoz/Talavera la Real
Actualización: 18/02/2018 19:00
Despejado
Despejado
 Viento del N
Viento: N 11 km/h
Temperatura: 14°C
Rocío: 0°C
Humedad: 39%
Barómetro: 1020 hPa
Resumen: Despejado
Visibilidad: greater than 10 km
2018/02/18 18:00 LEBZ 181800Z 36006KT CAVOK 14/00 Q1020
LEBL - Barcelona
Actualización: 18/02/2018 19:00
Despejado
Despejado
 Viento del SO
Viento: SO 9 km/h
Temperatura: 12°C
Rocío: 6°C
Humedad: 67%
Barómetro: 1019 hPa
Resumen: Despejado
Visibilidad: greater than 10 km
2018/02/18 18:00 LEBL 181800Z 22005KT CAVOK 12/06 Q1019 NOSIG
 
LEBB - Bilbao
Actualización: 18/02/2018 19:00
Lluvia débil, Muy nuboso
Lluvia débil, Muy nuboso
 Viento del ONO
Viento: ONO 13 km/h
Temperatura: 11°C
Rocío: 10°C
Humedad: 94%
Barómetro: 1025 hPa
Resumen: Light Rain
Nubosidad: Mostly Cloudy
Visibilidad: 7 km
Cloud details: Few Clouds 335 m
Partly Cloudy 610 m
Mostly Cloudy 914 m
2018/02/18 18:00 LEBB 181800Z 30007KT 7000 -RA FEW011 SCT020 BKN030 11/10 Q1025 TEMPO 3000 RA
LEBG - Burgos/Villafría
Actualización: 18/02/2018 19:00
Partly Cloudy
Partly Cloudy
 Viento del N
Viento: N 20 km/h
Temperatura: 6°C
Wind Chill: 2°C
Rocío: 2°C
Humedad: 76%
Barómetro: 1023 hPa
Nubosidad: Partly Cloudy
Visibilidad: 10 km
Cloud details: Partly Cloudy 884 m
Partly Cloudy 1128 m
2018/02/18 18:00 LEBG 181800Z 36011KT 9999 SCT029 SCT037 06/02 Q1023
LEBA - Córdoba
Actualización: 18/02/2018 19:00
Despejado
Despejado
 Viento del N
Viento: N 4 km/h
Temperatura: 15°C
Rocío: 8°C
Humedad: 63%
Barómetro: 1018 hPa
Resumen: Despejado
Visibilidad: greater than 10 km
2018/02/18 18:00 LEBA 181800Z AUTO 36002KT CAVOK 15/08 Q1018
 
LEGE - Gerona
Actualización: 18/02/2018 19:00
Few Clouds
Few Clouds
 Viento del varies
Viento: varies 2 km/h
Temperatura: 10°C
Rocío: 8°C
Humedad: 88%
Barómetro: 1019 hPa
Nubosidad: Few Clouds
Visibilidad: 10 km
Cloud details: Few Clouds 1372 m
2018/02/18 18:00 LEGE 181800Z VRB01KT 9999 FEW045 10/08 Q1019
LEGR - Granada
Actualización: 18/02/2018 19:00
Mostly Cloudy
Mostly Cloudy
 Viento del O
Viento: O 7 km/h
Temperatura: 14°C
Rocío: 7°C
Humedad: 63%
Barómetro: 1018 hPa
Nubosidad: Mostly Cloudy
Visibilidad: 10 km
Cloud details: Partly Cloudy 1219 m
Mostly Cloudy 2438 m
2018/02/18 18:00 LEGR 181800Z 27004KT 9999 SCT040 BKN080 14/07 Q1018
GCHI - Hierro
Actualización: 18/02/2018 19:00
Few Clouds
Few Clouds
 Viento del NNE
Viento: NNE 20 km/h
Temperatura: 18°C
Rocío: 12°C
Humedad: 68%
Barómetro: 1018 hPa
Nubosidad: Few Clouds
Visibilidad: 10 km
Cloud details: Few Clouds 914 m
2018/02/18 18:00 GCHI 181800Z 02011KT 340V050 9999 FEW030 18/12 Q1018
 
LEIB - Ibiza
Actualización: 18/02/2018 19:00
Mostly Cloudy
Mostly Cloudy
 Viento del varies
Viento: varies 4 km/h
Temperatura: 12°C
Rocío: 8°C
Humedad: 77%
Barómetro: 1020 hPa
Nubosidad: Mostly Cloudy
Visibilidad: 10 km
Cloud details: Few Clouds 762 m
Mostly Cloudy 1219 m
2018/02/18 18:00 LEIB 181800Z VRB02KT 9999 FEW025 BKN040 12/08 Q1020 NOSIG
LEJR - Jerez de la Frontera
Actualización: 18/02/2018 19:00
Few Clouds
Few Clouds
 Viento del NO
Viento: NO 7 km/h
Temperatura: 16°C
Rocío: 10°C
Humedad: 68%
Barómetro: 1018 hPa
Nubosidad: Few Clouds
Visibilidad: 10 km
Cloud details: Few Clouds 914 m
2018/02/18 18:00 LEJR 181800Z 31004KT 9999 FEW030 16/10 Q1018
LECO - A Coruña
Actualización: 18/02/2018 19:00
Mostly Cloudy
Mostly Cloudy
 Viento del varies
Viento: varies 4 km/h
Temperatura: 11°C
Rocío: 10°C
Humedad: 94%
Barómetro: 1026 hPa
Nubosidad: Mostly Cloudy
Visibilidad: 10 km
Cloud details: Few Clouds 366 m
Mostly Cloudy 792 m
2018/02/18 18:00 LECO 181800Z VRB02KT 9999 FEW012 BKN026 11/10 Q1026 NOSIG
 
GCLA - La Palma
Actualización: 18/02/2018 19:00
Partly Cloudy
Partly Cloudy
 Viento del NNE
Viento: NNE 13 km/h
Temperatura: 18°C
Rocío: 12°C
Humedad: 68%
Barómetro: 1019 hPa
Nubosidad: Partly Cloudy
Visibilidad: 10 km
Cloud details: Partly Cloudy 1524 m
2018/02/18 18:00 GCLA 181800Z 02007KT 350V050 9999 SCT050 18/12 Q1019
GCRR - Lanzarote
Actualización: 18/02/2018 19:00
Few Clouds
Few Clouds
 Viento del N
Viento: N 22 km/h
Temperatura: 19°C
Rocío: 11°C
Humedad: 60%
Barómetro: 1018 hPa
Nubosidad: Few Clouds
Visibilidad: 10 km
Cloud details: Few Clouds 1067 m
2018/02/18 18:00 GCRR 181800Z 01012KT 340V050 9999 FEW035 19/11 Q1018
GCLP - Las Palmas
Actualización: 18/02/2018 19:00
Mostly Cloudy
Mostly Cloudy
 Viento del NNE
Viento: NNE 28 km/h
Temperatura: 18°C
Rocío: 11°C
Humedad: 64%
Barómetro: 1018 hPa
Nubosidad: Mostly Cloudy
Visibilidad: 10 km
Cloud details: Mostly Cloudy 914 m
2018/02/18 18:00 GCLP 181800Z 02015KT 9999 BKN030 18/11 Q1018 NOSIG
 
LELN - León
Actualización: 18/02/2018 19:00
Despejado
Despejado
 Viento del N
Viento: N 19 km/h
Temperatura: 8°C
Wind Chill: 4°C
Rocío: 1°C
Humedad: 62%
Barómetro: 1023 hPa
Resumen: Despejado
Visibilidad: greater than 10 km
2018/02/18 18:00 LELN 181800Z 35010KT 320V020 CAVOK 08/01 Q1023
LELO - Logroño
Actualización: 18/02/2018 19:00
Mostly Cloudy
Mostly Cloudy
 Viento del O
Viento: O 17 km/h
Temperatura: 10°C
Wind Chill: 8°C
Rocío: 5°C
Humedad: 71%
Barómetro: 1023 hPa
Nubosidad: Mostly Cloudy
Visibilidad: 10 km
Cloud details: Few Clouds 457 m
Mostly Cloudy 1067 m
2018/02/18 18:00 LELO 181800Z 27009KT 9999 FEW015 BKN035 10/05 Q1023
LECV - Madrid/Colmenar
Actualización: 18/02/2018 19:00
Partly Cloudy
Partly Cloudy
 Viento del NNE
Viento: NNE 11 km/h
Temperatura: 9°C
Wind Chill: 7°C
Rocío: 1°C
Humedad: 58%
Barómetro: 1020 hPa
Nubosidad: Partly Cloudy
Visibilidad: 10 km
Cloud details: Partly Cloudy 1524 m
2018/02/18 18:00 LECV 181800Z 03006KT 9999 SCT050 09/01 Q1020
 
LEMD - Madrid/Barajas
Actualización: 18/02/2018 19:00
Mostly Cloudy
Mostly Cloudy
 Viento del N
Viento: N 17 km/h
Temperatura: 13°C
Rocío: 2°C
Humedad: 47%
Barómetro: 1020 hPa
Nubosidad: Mostly Cloudy
Visibilidad: 10 km
Cloud details: Mostly Cloudy 1829 m
2018/02/18 18:00 LEMD 181800Z 36009KT 9999 BKN060 13/02 Q1020 NOSIG
LEVS - Madrid/Cuatro Vientos
Actualización: 18/02/2018 19:00
Despejado
Despejado
 Viento del N
Viento: N 6 km/h
Temperatura: 12°C
Rocío: -1°C
Humedad: 41%
Barómetro: 1020 hPa
Resumen: Despejado
Visibilidad: greater than 10 km
2018/02/18 18:00 LEVS 181800Z 35003KT 280V030 CAVOK 12/M01 Q1020
LEGT - Madrid/Getafe
Actualización: 18/02/2018 19:00
Despejado
Despejado
 Viento del ENE
Viento: ENE 15 km/h
Temperatura: 12°C
Rocío: 1°C
Humedad: 47%
Barómetro: 1020 hPa
Resumen: Despejado
Visibilidad: greater than 10 km
2018/02/18 18:00 LEGT 181800Z 06008KT CAVOK 12/01 Q1020
 
LETO - Madrid/Torrejón
Actualización: 18/02/2018 19:00
Partly Cloudy
Partly Cloudy
 Viento del ENE
Viento: ENE 17 km/h
Temperatura: 13°C
Rocío: 2°C
Humedad: 47%
Barómetro: 1020 hPa
Nubosidad: Partly Cloudy
Visibilidad: 10 km
Cloud details: Partly Cloudy 1981 m
2018/02/18 18:00 LETO 181800Z 06009KT 9999 SCT065 13/02 Q1020 NOSIG
LEMG - Málaga
Actualización: 18/02/2018 19:00
Few Clouds
Few Clouds
 Viento del E
Viento: E 7 km/h
Temperatura: 14°C
Rocío: 12°C
Humedad: 88%
Barómetro: 1019 hPa
Nubosidad: Few Clouds
Visibilidad: 10 km
Cloud details: Few Clouds 549 m
2018/02/18 18:00 LEMG 181800Z 10004KT 9999 FEW018 14/12 Q1019 NOSIG
GEML - Melilla
Actualización: 18/02/2018 19:00
Partly Cloudy
Partly Cloudy
 Viento del NNE
Viento: NNE 6 km/h
Temperatura: 14°C
Rocío: 12°C
Humedad: 88%
Barómetro: 1019 hPa
Nubosidad: Partly Cloudy
Visibilidad: 10 km
Cloud details: Partly Cloudy 335 m
2018/02/18 18:00 GEML 181800Z 02003KT 330V070 9999 SCT011 14/12 Q1019
 
LEMH - Mahón
Actualización: 18/02/2018 19:00
Few Clouds
Few Clouds
 Viento del N
Viento: N 2 km/h
Temperatura: 9°C
Rocío: 7°C
Humedad: 87%
Barómetro: 1020 hPa
Nubosidad: Few Clouds
Visibilidad: 10 km
Cloud details: Few Clouds 1067 m
2018/02/18 18:00 LEMH 181800Z 35001KT 9999 FEW035 09/07 Q1020
LEMO - Morón de La Frontera
Actualización: 18/02/2018 19:00
Few Clouds
Few Clouds
 Viento del SO
Viento: SO 7 km/h
Temperatura: 16°C
Rocío: 9°C
Humedad: 63%
Barómetro: 1018 hPa
Nubosidad: Few Clouds
Visibilidad: 10 km
Cloud details: Few Clouds 762 m
2018/02/18 18:00 LEMO 181800Z 23004KT 9999 FEW025 16/09 Q1018 NOSIG
LERI - Murcia/Alcantarilla
Actualización: 18/02/2018 19:00
Mostly Cloudy
Mostly Cloudy
 Viento del ENE
Viento: ENE 11 km/h
Temperatura: 13°C
Rocío: 10°C
Humedad: 82%
Barómetro: 1020 hPa
Nubosidad: Mostly Cloudy
Visibilidad: 10 km
Cloud details: Few Clouds 610 m
Mostly Cloudy 914 m
2018/02/18 18:00 LERI 181800Z 07006KT 9999 FEW020 BKN030 13/10 Q1020 NOSIG
 
LELC - Murcia/San Javier
Actualización: 18/02/2018 19:00
Cubierto
Cubierto
 Viento del NE
Viento: NE 15 km/h
Temperatura: 14°C
Rocío: 12°C
Humedad: 88%
Barómetro: 1020 hPa
Nubosidad: Cubierto
Visibilidad: 10 km
Cloud details: Mostly Cloudy 335 m
Cubierto 975 m
2018/02/18 18:00 LELC 181800Z 04008KT 9999 BKN011 OVC032 14/12 Q1020 NOSIG
LEPA - Palma de Mallorca
Actualización: 18/02/2018 19:00
Partly Cloudy
Partly Cloudy
 Viento del NO
Viento: NO 6 km/h
Temperatura: 13°C
Rocío: 7°C
Humedad: 67%
Barómetro: 1020 hPa
Nubosidad: Partly Cloudy
Visibilidad: 10 km
Cloud details: Few Clouds 792 m
Partly Cloudy 1768 m
2018/02/18 18:00 LEPA 181800Z 32003KT 250V010 9999 FEW026 SCT058 13/07 Q1020 NOSIG
LEPP - Pamplona
Actualización: 18/02/2018 19:00
Mostly Cloudy
Mostly Cloudy
 Viento del NO
Viento: NO 19 km/h
Temperatura: 8°C
Wind Chill: 4°C
Rocío: 6°C
Humedad: 87%
Barómetro: 1022 hPa
Nubosidad: Mostly Cloudy
Visibilidad: 10 km
Cloud details: Partly Cloudy 549 m
Mostly Cloudy 853 m
2018/02/18 18:00 LEPP 181800Z 32010KT 9999 SCT018 BKN028 08/06 Q1022
 
LERS - Reus
Actualización: 18/02/2018 19:00
Despejado
Despejado
 Viento del OSO
Viento: OSO 15 km/h
Temperatura: 13°C
Rocío: 3°C
Humedad: 51%
Barómetro: 1019 hPa
Resumen: Despejado
Visibilidad: greater than 10 km
2018/02/18 18:00 LERS 181800Z 25008KT CAVOK 13/03 Q1019
LERT - Rota
Actualización: 18/02/2018 19:00
Few Clouds
Few Clouds
 Viento del varies
Viento: varies 4 km/h
Temperatura: 13°C
Rocío: 10°C
Humedad: 82%
Barómetro: 1019 hPa
Nubosidad: Few Clouds
Visibilidad: 10 km
Cloud details: Few Clouds 671 m
2018/02/18 18:00 LERT 181800Z VRB02KT 9999 FEW022 13/10 Q1019 NOSIG
LELL - Sabadell
Actualización: 18/02/2018 19:00
Despejado
Despejado
 Viento del O
Viento: O 6 km/h
Temperatura: 11°C
Rocío: 4°C
Humedad: 62%
Barómetro: 1019 hPa
Resumen: Despejado
Visibilidad: greater than 10 km
2018/02/18 18:00 LELL 181800Z AUTO 28003KT 250V320 CAVOK 11/04 Q1019
 
LESA - Salamanca
Actualización: 18/02/2018 19:00
Despejado
Despejado
 Viento del E
Viento: E 11 km/h
Temperatura: 8°C
Wind Chill: 6°C
Rocío: 1°C
Humedad: 62%
Barómetro: 1023 hPa
Resumen: Despejado
Visibilidad: greater than 10 km
2018/02/18 18:00 LESA 181800Z 08006KT CAVOK 08/01 Q1023
LESO - San Sebastián
Actualización: 18/02/2018 19:00
Lluvia débil, Muy nuboso
Lluvia débil, Muy nuboso
 Viento del O
Viento: O 20 km/h, Racha: 43 km/h
Temperatura: 11°C
Rocío: 10°C
Humedad: 94%
Barómetro: 1024 hPa
Resumen: Light Rain
Nubosidad: Mostly Cloudy
Visibilidad: 6 km
Cloud details: Partly Cloudy 366 m
Mostly Cloudy 518 m
2018/02/18 18:00 LESO 181800Z 27011G23KT 170V340 6000 -RA SCT012 BKN017 11/10 Q1024
LEXJ - Santander
Actualización: 18/02/2018 19:00
Lluvia débil, Muy nuboso
Lluvia débil, Muy nuboso
 Viento del ONO
Viento: ONO 17 km/h
Temperatura: 12°C
Rocío: 10°C
Humedad: 88%
Barómetro: 1025 hPa
Resumen: Light Rain
Nubosidad: Mostly Cloudy
Visibilidad: 9 km
Cloud details: Few Clouds 762 m
Mostly Cloudy 1372 m
2018/02/18 18:00 LEXJ 181800Z 29009KT 9000 -RA FEW025 BKN045 12/10 Q1025
 
LEPA - Palma de Mallorca
Actualización: 18/02/2018 19:00
Partly Cloudy
Partly Cloudy
 Viento del NO
Viento: NO 6 km/h
Temperatura: 13°C
Rocío: 7°C
Humedad: 67%
Barómetro: 1020 hPa
Nubosidad: Partly Cloudy
Visibilidad: 10 km
Cloud details: Few Clouds 792 m
Partly Cloudy 1768 m
2018/02/18 18:00 LEPA 181800Z 32003KT 250V010 9999 FEW026 SCT058 13/07 Q1020 NOSIG
LEPP - Pamplona
Actualización: 18/02/2018 19:00
Mostly Cloudy
Mostly Cloudy
 Viento del NO
Viento: NO 19 km/h
Temperatura: 8°C
Wind Chill: 4°C
Rocío: 6°C
Humedad: 87%
Barómetro: 1022 hPa
Nubosidad: Mostly Cloudy
Visibilidad: 10 km
Cloud details: Partly Cloudy 549 m
Mostly Cloudy 853 m
2018/02/18 18:00 LEPP 181800Z 32010KT 9999 SCT018 BKN028 08/06 Q1022
LEST - Santiago de Compostela
Actualización: 18/02/2018 19:00
Few Clouds
Few Clouds
 Viento del NNE
Viento: NNE 11 km/h
Temperatura: 10°C
Wind Chill: 8°C
Rocío: 8°C
Humedad: 88%
Barómetro: 1026 hPa
Nubosidad: Few Clouds
Visibilidad: 10 km
Cloud details: Few Clouds 366 m
2018/02/18 18:00 LEST 181800Z 03006KT 360V070 9999 FEW012 10/08 Q1026 NOSIG
 
LEZL - Sevilla
Actualización: 18/02/2018 19:00
Few Clouds
Few Clouds
 Viento del ENE
Viento: ENE 7 km/h
Temperatura: 18°C
Rocío: 8°C
Humedad: 52%
Barómetro: 1018 hPa
Nubosidad: Few Clouds
Visibilidad: 10 km
Cloud details: Few Clouds 1463 m
2018/02/18 18:00 LEZL 181800Z 06004KT 9999 FEW048 18/08 Q1018 NOSIG
GCXO - Tenerife
Actualización: 18/02/2018 19:00
Mostly Cloudy
Mostly Cloudy
 Viento del ONO
Viento: ONO 22 km/h
Temperatura: 13°C
Rocío: 10°C
Humedad: 82%
Barómetro: 1019 hPa
Nubosidad: Mostly Cloudy
Visibilidad: 10 km
Cloud details: Few Clouds 366 m
Partly Cloudy 457 m
Mostly Cloudy 671 m
2018/02/18 18:00 GCXO 181800Z 30012KT 9999 FEW012 SCT015 BKN022 13/10 Q1019 NOSIG
GCTS - Tenerife-Sur
Actualización: 18/02/2018 19:00
Mostly Cloudy
Mostly Cloudy
 Viento del E
Viento: E 22 km/h
Temperatura: 18°C
Rocío: 10°C
Humedad: 60%
Barómetro: 1018 hPa
Nubosidad: Mostly Cloudy
Visibilidad: 10 km
Cloud details: Few Clouds 1524 m
Mostly Cloudy 1676 m
2018/02/18 18:00 GCTS 181800Z 10012KT 9999 FEW050 BKN055 18/10 Q1018 NOSIG
 
LEVC - Valencia
Actualización: 18/02/2018 19:00
Few Clouds
Few Clouds
 Viento del ESE
Viento: ESE 7 km/h
Temperatura: 12°C
Rocío: 9°C
Humedad: 82%
Barómetro: 1020 hPa
Nubosidad: Few Clouds
Visibilidad: 10 km
Cloud details: Few Clouds 762 m
2018/02/18 18:00 LEVC 181800Z 11004KT 080V140 9999 FEW025 12/09 Q1020 NOSIG
LEVD - Valladolid
Actualización: 18/02/2018 19:00
Partly Cloudy
Partly Cloudy
 Viento del ENE
Viento: ENE 20 km/h
Temperatura: 8°C
Wind Chill: 4°C
Rocío: 1°C
Humedad: 62%
Barómetro: 1023 hPa
Nubosidad: Partly Cloudy
Visibilidad: 10 km
Cloud details: Partly Cloudy 1433 m
2018/02/18 18:00 LEVD 181800Z 06011KT 9999 SCT047 08/01 Q1023
LEVX - Vigo
Actualización: 18/02/2018 19:00
Despejado
Despejado
 Viento del NNE
Viento: NNE 20 km/h
Temperatura: 13°C
Rocío: 8°C
Humedad: 72%
Barómetro: 1024 hPa
Resumen: Despejado
Visibilidad: greater than 10 km
2018/02/18 18:00 LEVX 181800Z 02011KT 340V070 CAVOK 13/08 Q1024 NOSIG
 
LEVT - Vitoria
Actualización: 18/02/2018 19:00
Cubierto
Cubierto
 Viento del NNO
Viento: NNO 17 km/h
Temperatura: 8°C
Wind Chill: 5°C
Rocío: 5°C
Humedad: 82%
Barómetro: 1024 hPa
Nubosidad: Cubierto
Visibilidad: 10 km
Cloud details: Partly Cloudy 518 m
Mostly Cloudy 1219 m
Cubierto 2134 m
2018/02/18 18:00 LEVT 181800Z 33009KT 310V010 9999 SCT017 BKN040 OVC070 08/05 Q1024
LEZG - Zaragoza
Actualización: 18/02/2018 19:00
Partly Cloudy
Partly Cloudy
 Viento del ONO
Viento: ONO 30 km/h
Temperatura: 11°C
Rocío: 5°C
Humedad: 67%
Barómetro: 1021 hPa
Nubosidad: Partly Cloudy
Visibilidad: 10 km
Cloud details: Few Clouds 1067 m
Partly Cloudy 2591 m
2018/02/18 18:00 LEZG 181800Z 29016KT 9999 FEW035 SCT085 11/05 Q1021

La estación de MeteoMurcia.com, publica sus datos en los siguientes proyectos:

Meteoclimatic www.awekas.at

W3Counter
Web Analytics